Time;durP1;ratioP1;P1;durP2;ratioP2;P2;SDS_P1;SDS_P2;PMS_P1;PMS_P2;Temp;Humidity;BMP_temperature;BMP_pressure;BME280_temperature;BME280_humidity;BME280_pressure;Samples;Min_cycle;Max_cycle;Signal;HPM_P1;HPM_P2
2023/08/17 00:02:10;;;;;;;9.07;7.45;;;;;;;23.56;60.36;93653.16;5072225;28;20374;-90
2023/08/17 00:04:36;;;;;;;10.77;8.13;;;;;;;23.55;60.33;93657.94;5105867;28;20040;-90
2023/08/17 00:07:01;;;;;;;8.50;6.72;;;;;;;23.57;60.37;93666.41;5089851;28;20040;-90
2023/08/17 00:09:27;;;;;;;14.15;7.30;;;;;;;23.55;60.28;93666.22;5076389;28;20417;-90
2023/08/17 00:11:52;;;;;;;9.00;7.32;;;;;;;23.55;60.21;93657.94;5067234;28;20414;-90
2023/08/17 00:14:18;;;;;;;11.25;7.35;;;;;;;23.55;60.39;93652.41;5081944;28;20041;-90
2023/08/17 00:16:43;;;;;;;12.90;7.38;;;;;;;23.55;60.33;93657.19;5065320;28;20233;-90
2023/08/17 00:19:09;;;;;;;11.05;7.00;;;;;;;23.54;60.10;93650.94;5083267;28;20040;-90
2023/08/17 00:21:35;;;;;;;10.93;6.80;;;;;;;23.56;60.21;93647.63;5069889;28;20044;-90
2023/08/17 00:24:00;;;;;;;13.05;7.40;;;;;;;23.54;60.30;93642.66;5071891;28;20096;-91
2023/08/17 00:26:25;;;;;;;9.65;7.35;;;;;;;23.54;60.29;93645.41;5072421;28;20093;-89
2023/08/17 00:28:51;;;;;;;10.07;6.93;;;;;;;23.55;59.97;93643.41;5060740;28;20053;-90
2023/08/17 00:31:16;;;;;;;8.32;6.75;;;;;;;23.54;60.22;93639.16;5058318;28;20393;-91
2023/08/17 00:33:42;;;;;;;8.80;7.22;;;;;;;23.51;59.96;93632.66;5070320;28;20509;-90
2023/08/17 00:36:07;;;;;;;11.05;7.85;;;;;;;23.52;59.95;93630.69;5082067;28;20036;-90
2023/08/17 00:38:33;;;;;;;9.70;6.72;;;;;;;23.53;60.19;93621.13;5052626;28;20106;-90
2023/08/17 00:40:58;;;;;;;11.27;8.05;;;;;;;23.51;60.26;93616.09;5069809;28;20067;-90
2023/08/17 00:43:23;;;;;;;9.45;7.30;;;;;;;23.52;60.23;93616.88;5068635;28;20055;-90
2023/08/17 00:45:49;;;;;;;9.27;7.15;;;;;;;23.52;60.04;93609.34;5087593;28;20083;-90
2023/08/17 00:48:14;;;;;;;14.32;7.32;;;;;;;23.52;60.19;93623.13;5106828;28;20033;-90
2023/08/17 00:50:40;;;;;;;10.52;6.65;;;;;;;23.53;60.44;93623.88;5077546;28;20047;-91
2023/08/17 00:53:05;;;;;;;8.57;6.50;;;;;;;23.51;60.11;93618.88;5050861;28;20033;-90
2023/08/17 00:55:30;;;;;;;9.93;7.28;;;;;;;23.50;60.30;93613.88;5027837;28;20412;-90
2023/08/17 00:57:56;;;;;;;9.07;7.13;;;;;;;23.50;60.28;93616.66;5013697;28;20044;-90
2023/08/17 01:00:21;;;;;;;10.82;7.70;;;;;;;23.50;60.12;93606.34;5012765;28;20605;-90
2023/08/17 01:02:47;;;;;;;8.85;7.43;;;;;;;23.50;60.24;93619.41;5029502;28;20511;-90
2023/08/17 01:05:12;;;;;;;10.52;6.97;;;;;;;23.50;60.15;93605.59;5029049;28;20041;-91
2023/08/17 01:07:38;;;;;;;10.63;7.38;;;;;;;23.50;60.01;93613.88;4996100;28;20117;-90
2023/08/17 01:10:04;;;;;;;12.50;7.63;;;;;;;23.50;60.04;93611.88;4996430;28;20064;-90
2023/08/17 01:12:31;;;;;;;9.57;7.38;;;;;;;23.49;60.17;93615.91;4992811;28;20069;-90
2023/08/17 01:15:09;;;;;;;9.45;6.90;;;;;;;23.49;60.15;93612.41;5013535;28;20045;-90
2023/08/17 01:17:40;;;;;;;10.45;7.57;;;;;;;23.49;60.28;93615.16;5033877;28;20037;-91
2023/08/17 01:20:07;;;;;;;12.00;7.63;;;;;;;23.48;60.32;93628.22;5012214;28;20533;-91
2023/08/17 01:22:33;;;;;;;8.90;6.97;;;;;;;23.49;60.08;93620.69;4992391;28;20057;-90
2023/08/17 01:24:58;;;;;;;12.38;7.65;;;;;;;23.48;60.20;93613.69;5062223;28;20110;-90
2023/08/17 01:27:24;;;;;;;8.55;7.32;;;;;;;23.49;60.10;93620.69;5046905;28;20064;-90
2023/08/17 01:29:51;;;;;;;8.13;7.03;;;;;;;23.49;60.21;93620.69;5039972;28;20040;-91
2023/08/17 01:32:32;;;;;;;10.20;7.38;;;;;;;23.47;60.07;93615.69;5050238;28;20135;-90
2023/08/17 01:35:15;;;;;;;8.77;7.00;;;;;;;23.48;60.08;93619.19;5036106;28;20577;-90
2023/08/17 01:37:41;;;;;;;10.98;7.03;;;;;;;23.48;60.21;93614.41;5033403;28;20465;-90
2023/08/17 01:40:07;;;;;;;9.55;6.47;;;;;;;23.47;60.14;93614.97;5017234;28;20304;-90
2023/08/17 01:42:32;;;;;;;11.48;7.40;;;;;;;23.47;60.08;93623.97;5030222;28;20052;-90
2023/08/17 01:44:58;;;;;;;10.80;7.40;;;;;;;23.49;60.02;93621.41;5021992;28;20095;-90
2023/08/17 01:47:24;;;;;;;8.48;6.80;;;;;;;23.48;59.73;93608.16;5033373;28;20450;-90
2023/08/17 01:49:49;;;;;;;11.00;7.72;;;;;;;23.48;59.87;93624.72;5031509;28;20112;-90
2023/08/17 01:52:15;;;;;;;9.13;6.93;;;;;;;23.47;60.17;93620.47;5042940;28;20495;-90
2023/08/17 01:56:55;;;;;;;9.20;6.85;;;;;;;23.47;59.72;93623.25;5104245;27;20599;-90
2023/08/17 01:59:20;;;;;;;9.57;7.22;;;;;;;23.46;59.86;93627.28;5087671;27;20119;-89
2023/08/17 02:01:45;;;;;;;11.70;7.05;;;;;;;23.46;59.96;93621.75;5089643;28;20040;-90
2023/08/17 02:04:11;;;;;;;9.35;7.80;;;;;;;23.45;59.95;93623.03;5066573;28;20036;-90
2023/08/17 02:06:36;;;;;;;9.80;7.15;;;;;;;23.45;59.93;93621.00;5066335;28;20044;-89
2023/08/17 02:09:02;;;;;;;11.90;7.15;;;;;;;23.45;59.87;93617.50;5049924;28;20033;-90
2023/08/17 02:11:27;;;;;;;9.70;6.85;;;;;;;23.45;59.92;93617.50;5070658;28;20040;-89
2023/08/17 02:13:52;;;;;;;9.32;6.55;;;;;;;23.45;60.09;93614.75;5079009;28;20082;-90
2023/08/17 02:16:18;;;;;;;9.30;6.72;;;;;;;23.45;59.72;93623.78;5066197;28;20047;-89
2023/08/17 02:18:44;;;;;;;9.80;7.10;;;;;;;23.44;60.22;93619.53;5050365;28;20036;-91
2023/08/17 02:21:10;;;;;;;10.30;6.63;;;;;;;23.43;60.05;93620.06;5059434;27;20067;-90
2023/08/17 02:23:35;;;;;;;9.05;7.25;;;;;;;23.44;59.84;93622.28;5066440;28;20390;-90
2023/08/17 02:26:00;;;;;;;10.30;6.93;;;;;;;23.45;59.72;93632.06;5046362;28;20040;-90
2023/08/17 02:28:26;;;;;;;10.10;7.15;;;;;;;23.45;59.99;93621.00;5081362;28;20047;-89
2023/08/17 02:30:55;;;;;;;9.02;6.07;;;;;;;23.44;59.79;93627.06;5066552;28;20040;-90
2023/08/17 02:33:22;;;;;;;6.70;6.00;;;;;;;23.45;59.81;93623.03;5049619;28;20043;-90
2023/08/17 02:35:50;;;;;;;9.93;6.38;;;;;;;23.43;59.64;93625.59;5049859;28;20124;-90
2023/08/17 02:38:16;;;;;;;10.48;6.38;;;;;;;23.43;59.68;93640.13;5065698;28;20354;-90
2023/08/17 02:40:41;;;;;;;9.50;5.57;;;;;;;23.44;59.71;93644.38;5065584;28;20107;-90
2023/08/17 02:43:07;;;;;;;9.05;5.68;;;;;;;23.44;59.80;93638.09;5066091;28;20048;-90
2023/08/17 02:45:33;;;;;;;9.68;6.60;;;;;;;23.43;59.81;93645.66;5077665;28;20040;-90
2023/08/17 02:47:59;;;;;;;8.65;6.63;;;;;;;23.43;59.70;93631.09;5078827;28;20516;-89
2023/08/17 02:50:24;;;;;;;7.95;5.82;;;;;;;23.42;59.88;93633.13;5050035;28;20048;-90
2023/08/17 02:52:50;;;;;;;8.73;6.57;;;;;;;23.42;60.04;93630.38;5074166;28;20405;-90
2023/08/17 02:55:15;;;;;;;7.38;6.32;;;;;;;23.42;59.68;93624.09;5082109;28;20041;-90
2023/08/17 02:57:41;;;;;;;7.35;6.03;;;;;;;23.41;59.39;93617.84;5066482;28;20076;-90
2023/08/17 03:00:07;;;;;;;8.63;6.30;;;;;;;23.43;59.50;93611.78;5086053;28;20032;-90
2023/08/17 03:02:32;;;;;;;8.45;6.15;;;;;;;23.42;59.87;93613.81;5085582;28;20093;-90
2023/08/17 03:04:57;;;;;;;8.65;6.28;;;;;;;23.41;59.75;93615.09;5085934;28;20052;-90
2023/08/17 03:07:23;;;;;;;7.95;6.30;;;;;;;23.41;59.63;93619.88;5093970;28;20105;-90
2023/08/17 03:09:48;;;;;;;11.15;7.03;;;;;;;23.41;59.80;93623.38;5048835;28;20044;-90
2023/08/17 03:12:14;;;;;;;10.88;7.53;;;;;;;23.41;59.77;93615.09;5051616;28;20033;-90
2023/08/17 03:14:39;;;;;;;7.88;6.68;;;;;;;23.40;59.71;93608.09;5062139;28;20379;-90
2023/08/17 03:17:05;;;;;;;8.98;6.63;;;;;;;23.40;59.83;93607.34;5052770;28;20055;-89
2023/08/17 03:19:30;;;;;;;8.35;6.82;;;;;;;23.41;59.88;93603.31;5065591;28;20122;-90
2023/08/17 03:21:56;;;;;;;8.07;5.90;;;;;;;23.40;59.72;93602.56;5071980;28;20558;-90
2023/08/17 03:24:21;;;;;;;7.82;6.38;;;;;;;23.41;59.62;93614.34;5068366;28;20075;-90
2023/08/17 03:26:46;;;;;;;8.32;5.82;;;;;;;23.38;59.55;93607.91;5052886;28;20024;-90
2023/08/17 03:29:12;;;;;;;16.05;7.13;;;;;;;23.41;59.04;93598.53;5068215;28;20040;-90
2023/08/17 03:31:37;;;;;;;15.40;8.23;;;;;;;23.41;59.78;93595.78;5051256;28;20040;-88
2023/08/17 03:34:03;;;;;;;24.15;8.95;;;;;;;23.42;59.35;93604.78;5086540;28;20061;-88
2023/08/17 03:36:28;;;;;;;37.60;26.67;;;;;;;23.43;59.29;93598.75;5078190;28;20040;-88
2023/08/17 03:38:54;;;;;;;102.38;68.35;;;;;;;23.51;59.02;93604.31;5074031;28;20696;-91
2023/08/17 03:41:28;;;;;;;28.52;20.05;;;;;;;23.59;58.58;93599.66;5074012;28;20498;-91
2023/08/17 03:43:54;;;;;;;21.85;17.25;;;;;;;23.64;58.34;93601.50;5075900;28;20097;-90
2023/08/17 03:46:19;;;;;;;14.07;9.88;;;;;;;23.50;58.24;93606.34;5074533;28;20112;-91
2023/08/17 03:48:46;;;;;;;34.28;12.52;;;;;;;23.48;58.01;93605.41;5068943;28;20079;-91
2023/08/17 03:51:11;;;;;;;9.18;7.40;;;;;;;23.33;57.24;93614.31;5058324;28;20569;-90
2023/08/17 03:53:39;;;;;;;17.40;9.75;;;;;;;23.10;57.03;93608.56;5046545;28;20062;-90
2023/08/17 03:56:05;;;;;;;34.53;15.10;;;;;;;22.86;57.12;93608.88;5061205;28;20350;-91
2023/08/17 03:58:34;;;;;;;51.47;15.32;;;;;;;22.73;56.77;93614.41;5032412;28;20372;-89
2023/08/17 04:00:59;;;;;;;26.02;11.88;;;;;;;22.49;56.49;93616.16;5072786;28;20037;-89
2023/08/17 04:03:26;;;;;;;20.77;10.20;;;;;;;22.42;57.10;93614.03;5033442;28;20596;-91
2023/08/17 04:05:52;;;;;;;26.90;11.88;;;;;;;22.27;57.52;93616.63;5073578;28;20066;-91
2023/08/17 04:08:17;;;;;;;35.45;16.13;;;;;;;22.25;57.12;93627.44;5039311;28;20045;-90
2023/08/17 04:10:43;;;;;;;44.67;19.38;;;;;;;22.18;57.58;93628.06;5084214;28;20048;-89
2023/08/17 04:13:08;;;;;;;32.97;15.93;;;;;;;22.16;57.95;93630.59;5051053;28;20045;-90
2023/08/17 04:15:33;;;;;;;27.85;16.75;;;;;;;22.08;57.92;93625.00;5047694;28;20067;-90
2023/08/17 04:17:59;;;;;;;30.52;14.38;;;;;;;22.02;58.46;93618.13;5078886;28;20044;-92
2023/08/17 04:20:25;;;;;;;41.50;16.40;;;;;;;21.98;58.59;93620.41;5090352;28;20405;-91
2023/08/17 04:22:51;;;;;;;20.15;11.65;;;;;;;21.95;58.76;93622.19;5068771;28;20089;-90
2023/08/17 04:25:16;;;;;;;22.58;12.23;;;;;;;21.96;58.75;93625.69;5086454;28;20429;-89
2023/08/17 04:27:41;;;;;;;43.67;25.73;;;;;;;21.85;59.02;93627.41;5052774;28;20040;-91
2023/08/17 04:30:08;;;;;;;28.70;23.08;;;;;;;21.91;58.81;93632.78;5055749;28;20716;-87
2023/08/17 04:32:33;;;;;;;27.55;15.73;;;;;;;21.81;59.32;93640.72;5061220;28;20044;-91
2023/08/17 04:34:59;;;;;;;25.80;12.40;;;;;;;21.76;59.30;93640.81;5055917;28;20041;-92
2023/08/17 04:37:24;;;;;;;48.28;19.17;;;;;;;21.77;59.25;93651.31;5049240;28;20040;-91
2023/08/17 04:39:51;;;;;;;86.53;44.83;;;;;;;21.80;59.06;93644.75;5082654;28;20032;-91
2023/08/17 04:42:19;;;;;;;78.47;43.47;;;;;;;21.71;59.04;93645.16;5042257;28;20048;-92
2023/08/17 04:44:46;;;;;;;54.95;32.28;;;;;;;21.75;59.08;93628.34;5063455;28;20051;-90
2023/08/17 04:47:12;;;;;;;35.42;21.83;;;;;;;21.72;59.13;93641.13;5043345;28;20090;-90
2023/08/17 04:49:39;;;;;;;26.35;16.45;;;;;;;21.69;59.22;93644.19;5026935;28;20044;-92
2023/08/17 04:52:06;;;;;;;22.25;15.70;;;;;;;21.68;59.33;93637.19;5054536;28;20044;-93
2023/08/17 04:54:36;;;;;;;24.15;14.80;;;;;;;21.66;59.34;93637.72;5052469;28;20395;-93
2023/08/17 04:57:03;;;;;;;33.17;21.42;;;;;;;21.72;59.06;93651.41;5020578;28;20045;-93
2023/08/17 04:59:29;;;;;;;93.95;28.95;;;;;;;21.67;59.21;93638.47;5037346;28;20083;-93
2023/08/17 05:01:55;;;;;;;29.83;17.15;;;;;;;21.68;59.52;93640.69;5043133;28;20115;-91
2023/08/17 05:04:20;;;;;;;36.63;20.58;;;;;;;21.65;59.30;93639.00;5063644;28;20045;-91
2023/08/17 05:06:45;;;;;;;43.38;20.20;;;;;;;21.72;59.26;93643.13;5016621;28;20491;-92
2023/08/17 05:09:11;;;;;;;25.92;15.60;;;;;;;21.66;59.26;93643.22;5006715;28;20412;-93
2023/08/17 05:11:36;;;;;;;49.28;21.40;;;;;;;21.67;59.42;93655.72;5004970;28;20050;-91
2023/08/17 05:14:02;;;;;;;28.95;16.27;;;;;;;21.60;59.83;93648.09;5000590;28;20049;-91
2023/08/17 05:16:27;;;;;;;30.48;15.65;;;;;;;21.76;59.56;93651.81;4974364;28;20037;-93
2023/08/17 05:18:53;;;;;;;24.10;13.75;;;;;;;21.67;59.61;93652.22;4974031;28;20081;-91
2023/08/17 05:21:20;;;;;;;35.55;16.35;;;;;;;21.66;59.34;93653.50;4958358;28;20941;-92
2023/08/17 05:23:45;;;;;;;37.40;15.52;;;;;;;21.68;59.08;93654.44;5007974;28;20199;-91
2023/08/17 05:26:10;;;;;;;28.45;12.05;;;;;;;21.68;59.20;93654.44;4989882;28;20042;-91
2023/08/17 05:28:39;;;;;;;21.65;12.77;;;;;;;21.69;59.42;93660.69;5007267;28;20034;-91
2023/08/17 05:31:06;;;;;;;14.02;11.13;;;;;;;21.57;59.86;93659.41;4988252;28;20049;-92
2023/08/17 05:33:31;;;;;;;16.20;11.95;;;;;;;21.73;59.29;93656.38;4972075;28;20626;-92
2023/08/17 05:35:57;;;;;;;25.40;11.45;;;;;;;21.74;59.56;93654.38;4990290;28;20053;-91
2023/08/17 05:38:22;;;;;;;15.88;9.25;;;;;;;21.74;59.30;93654.38;5035689;28;20517;-91
2023/08/17 05:40:54;;;;;;;13.80;8.90;;;;;;;21.78;58.94;93649.28;5032898;28;20045;-93
2023/08/17 05:43:20;;;;;;;15.30;10.00;;;;;;;21.87;58.92;93646.84;5016258;28;20570;-93
2023/08/17 05:45:49;;;;;;;31.75;18.88;;;;;;;21.93;59.02;93648.78;5017552;28;20045;-92
2023/08/17 05:48:15;;;;;;;39.22;20.20;;;;;;;21.99;58.58;93647.41;5028860;28;20127;-93
2023/08/17 05:50:43;;;;;;;62.45;28.38;;;;;;;22.06;58.64;93648.81;5056711;28;20039;-94
2023/08/17 05:53:09;;;;;;;63.30;28.88;;;;;;;22.10;58.50;93658.22;5034815;28;20029;-89
2023/08/17 05:55:35;;;;;;;61.05;29.13;;;;;;;22.18;58.30;93650.81;5073027;28;20043;-91
2023/08/17 05:58:00;;;;;;;60.42;28.63;;;;;;;22.27;58.17;93660.69;5056800;28;20052;-92
2023/08/17 06:00:25;;;;;;;50.97;24.45;;;;;;;22.30;58.21;93656.84;5070575;28;20041;-92
2023/08/17 06:02:51;;;;;;;56.20;25.42;;;;;;;22.37;58.04;93660.97;5056026;28;20032;-92
2023/08/17 06:05:17;;;;;;;117.07;80.93;;;;;;;22.46;58.60;93655.06;5059106;27;20067;-91
2023/08/17 06:07:43;;;;;;;110.90;62.88;;;;;;;22.52;57.60;93650.88;5062413;28;20240;-93
2023/08/17 06:10:09;;;;;;;63.88;36.35;;;;;;;22.65;57.50;93655.66;5033187;28;20049;-92
2023/08/17 06:12:35;;;;;;;44.78;22.23;;;;;;;22.62;57.71;93655.97;5049509;28;20048;-92
2023/08/17 06:15:01;;;;;;;45.92;23.02;;;;;;;22.74;57.40;93668.22;5026869;28;20045;-90
2023/08/17 06:17:28;;;;;;;41.42;23.05;;;;;;;22.83;57.45;93654.03;5071727;28;20524;-91
2023/08/17 06:19:53;;;;;;;111.70;50.88;;;;;;;22.80;57.55;93655.84;5044005;28;20036;-91
2023/08/17 06:22:19;;;;;;;63.45;44.33;;;;;;;22.84;57.34;93658.28;5037261;28;20391;-91
2023/08/17 06:24:45;;;;;;;43.53;20.65;;;;;;;22.83;57.04;93652.03;5049215;28;20513;-94
2023/08/17 06:27:14;;;;;;;31.92;20.23;;;;;;;22.79;57.28;93650.88;5070462;28;20049;-90
2023/08/17 06:29:39;;;;;;;30.00;17.85;;;;;;;22.79;57.65;93653.63;5033613;28;20131;-89
2023/08/17 06:32:06;;;;;;;30.45;18.27;;;;;;;22.78;57.65;93649.38;5074291;28;20058;-89
2023/08/17 06:34:31;;;;;;;40.40;21.17;;;;;;;22.90;57.38;93640.34;5066730;28;20064;-89
2023/08/17 06:36:58;;;;;;;39.10;21.58;;;;;;;22.85;57.80;93646.72;5053009;28;20051;-91
2023/08/17 06:39:24;;;;;;;46.83;20.50;;;;;;;22.88;57.88;93650.44;5036668;28;20051;-90
2023/08/17 06:41:50;;;;;;;42.00;19.05;;;;;;;22.87;57.84;93646.94;5051037;28;20117;-90
2023/08/17 06:44:17;;;;;;;39.00;19.00;;;;;;;22.92;57.79;93653.59;5077429;28;20537;-88
2023/08/17 06:46:42;;;;;;;33.72;17.63;;;;;;;22.92;58.06;93639.81;5088550;28;20044;-90
2023/08/17 06:49:08;;;;;;;42.50;19.02;;;;;;;22.93;57.88;93635.78;5084848;28;20047;-88
2023/08/17 06:51:34;;;;;;;40.53;16.80;;;;;;;22.92;58.28;93647.34;5055332;28;20053;-91
2023/08/17 06:53:59;;;;;;;29.83;17.60;;;;;;;22.94;58.24;93651.06;5069279;28;20509;-91
2023/08/17 06:56:25;;;;;;;37.15;18.95;;;;;;;23.01;58.09;93644.88;5067012;28;20047;-91
2023/08/17 06:58:51;;;;;;;36.40;21.40;;;;;;;22.97;58.23;93644.44;5074316;28;20036;-89
2023/08/17 07:01:16;;;;;;;40.55;21.58;;;;;;;22.98;58.19;93643.19;5054856;28;20062;-92
2023/08/17 07:03:41;;;;;;;40.80;21.77;;;;;;;23.01;58.15;93647.63;5038938;28;20043;-89
2023/08/17 07:06:08;;;;;;;85.05;45.65;;;;;;;23.07;58.06;93642.00;5053067;28;20075;-91
2023/08/17 07:08:33;;;;;;;99.15;55.80;;;;;;;23.13;57.88;93643.34;5036868;28;20427;-91
2023/08/17 07:10:59;;;;;;;104.28;59.40;;;;;;;23.13;58.12;93648.88;5066104;28;20094;-91
2023/08/17 07:13:24;;;;;;;96.53;54.10;;;;;;;23.11;58.40;93653.44;5055566;28;20036;-91
2023/08/17 07:15:51;;;;;;;89.55;50.25;;;;;;;23.16;58.35;93647.06;5074145;28;20028;-90
2023/08/17 07:18:18;;;;;;;87.18;51.63;;;;;;;23.17;58.39;93646.50;5069823;28;20059;-91
2023/08/17 07:20:46;;;;;;;76.03;46.20;;;;;;;23.14;59.12;93655.88;5059035;28;20204;-90
2023/08/17 07:23:11;;;;;;;79.07;47.05;;;;;;;23.22;58.57;93651.16;5037701;28;20036;-93
2023/08/17 07:25:37;;;;;;;71.38;43.95;;;;;;;23.21;59.21;93652.44;5060083;28;20076;-90
2023/08/17 07:28:02;;;;;;;66.88;41.15;;;;;;;23.25;58.93;93649.34;5067300;28;20044;-90
2023/08/17 07:30:28;;;;;;;78.00;40.90;;;;;;;23.20;59.40;93656.47;5048410;28;20040;-90
2023/08/17 07:32:53;;;;;;;72.13;39.70;;;;;;;23.21;59.16;93649.66;5052908;28;20047;-87
2023/08/17 07:35:19;;;;;;;82.50;42.08;;;;;;;23.22;59.24;93647.66;5067004;28;20041;-91
2023/08/17 07:37:44;;;;;;;60.33;37.28;;;;;;;23.21;59.27;93659.97;5055303;28;20039;-91
2023/08/17 07:40:11;;;;;;;62.60;34.90;;;;;;;23.27;59.29;93655.06;5067666;28;20032;-91
2023/08/17 07:42:37;;;;;;;56.00;32.17;;;;;;;23.32;59.42;93665.22;5058070;28;20617;-90
2023/08/17 07:45:06;;;;;;;67.47;33.58;;;;;;;23.34;59.55;93668.19;5036507;28;20035;-90
2023/08/17 07:47:31;;;;;;;58.33;33.85;;;;;;;23.35;59.55;93666.91;5050832;28;20506;-91
2023/08/17 07:49:57;;;;;;;60.65;33.15;;;;;;;23.30;59.64;93662.28;5051579;28;20041;-92
2023/08/17 07:52:23;;;;;;;53.13;32.45;;;;;;;23.45;59.58;93665.16;5029768;28;20487;-90
2023/08/17 07:54:48;;;;;;;61.10;32.53;;;;;;;23.34;59.80;93670.97;5031628;28;20055;-91
2023/08/17 07:57:14;;;;;;;64.55;37.08;;;;;;;23.36;59.86;93673.91;5046533;28;20045;-90
2023/08/17 07:59:39;;;;;;;57.28;34.05;;;;;;;23.34;60.01;93673.72;5049977;28;20059;-89
2023/08/17 08:02:05;;;;;;;69.15;37.38;;;;;;;23.34;59.97;93673.72;5060020;28;20090;-90
2023/08/17 08:04:30;;;;;;;66.03;37.83;;;;;;;23.37;59.72;93666.38;5074491;28;20039;-90
2023/08/17 08:06:57;;;;;;;90.90;39.17;;;;;;;23.42;60.38;93666.22;5052309;28;20037;-92
2023/08/17 08:09:23;;;;;;;64.35;33.25;;;;;;;23.48;59.84;93666.84;5061586;28;20098;-90
2023/08/17 08:11:49;;;;;;;65.85;39.20;;;;;;;23.49;59.85;93664.84;5048824;28;20075;-90
2023/08/17 08:14:14;;;;;;;75.57;50.03;;;;;;;23.53;59.86;93665.28;5066871;28;20036;-89
2023/08/17 08:16:40;;;;;;;60.47;33.97;;;;;;;23.57;59.96;93666.41;5061023;28;20044;-91
2023/08/17 08:19:05;;;;;;;45.95;30.10;;;;;;;23.50;59.97;93655.28;5033843;28;20122;-90
2023/08/17 08:21:31;;;;;;;54.83;34.83;;;;;;;23.50;60.20;93663.56;5042431;28;20044;-89
2023/08/17 08:23:56;;;;;;;39.85;25.58;;;;;;;23.50;60.40;93663.56;5050214;28;20048;-90
2023/08/17 08:26:22;;;;;;;55.20;26.52;;;;;;;23.48;59.97;93664.09;5076620;28;20047;-90
2023/08/17 08:28:47;;;;;;;63.80;25.02;;;;;;;23.54;59.81;93656.44;5081969;28;20048;-91
2023/08/17 08:31:14;;;;;;;55.33;26.35;;;;;;;23.62;59.93;93669.56;5062397;28;20036;-91
2023/08/17 08:33:39;;;;;;;47.20;23.77;;;;;;;23.62;59.53;93667.53;5040039;28;20611;-89
2023/08/17 08:36:06;;;;;;;71.30;27.58;;;;;;;23.69;59.42;93668.88;5049756;28;20131;-90
2023/08/17 08:38:33;;;;;;;78.47;30.73;;;;;;;23.66;59.60;93661.69;5061793;28;20118;-90
2023/08/17 08:40:59;;;;;;;46.35;25.70;;;;;;;23.76;59.30;93670.97;5068157;28;20032;-89
2023/08/17 08:43:24;;;;;;;47.13;23.17;;;;;;;23.81;59.08;93664.59;5050181;28;20043;-92
2023/08/17 08:45:57;;;;;;;39.00;21.00;;;;;;;23.80;59.13;93652.81;5070797;28;20036;-91
2023/08/17 08:48:23;;;;;;;48.33;20.55;;;;;;;23.86;59.15;93658.16;5071380;28;20036;-91
2023/08/17 08:50:50;;;;;;;40.75;19.38;;;;;;;23.86;59.49;93655.41;5046749;28;20076;-89
2023/08/17 08:53:16;;;;;;;33.97;18.13;;;;;;;23.84;59.35;93657.97;5088843;28;20056;-89
2023/08/17 08:55:55;;;;;;;34.22;18.60;;;;;;;23.81;59.52;93664.59;5070952;28;20038;-91
2023/08/17 08:58:20;;;;;;;33.03;21.52;;;;;;;23.82;59.89;93660.53;5059749;28;20041;-90
2023/08/17 09:00:47;;;;;;;38.63;20.48;;;;;;;23.82;60.13;93666.78;5059058;28;20052;-89
2023/08/17 09:03:20;;;;;;;67.55;21.65;;;;;;;23.87;59.73;93665.16;5050484;28;20090;-88
2023/08/17 09:05:47;;;;;;;52.60;20.52;;;;;;;23.84;59.52;93655.94;5075404;28;20539;-91
2023/08/17 09:08:12;;;;;;;71.93;24.75;;;;;;;23.82;59.47;93658.50;5060453;28;20028;-90
2023/08/17 09:10:38;;;;;;;36.10;15.20;;;;;;;23.91;58.39;93654.53;5039393;28;20037;-88
2023/08/17 09:13:03;;;;;;;18.48;11.27;;;;;;;23.90;57.86;93653.03;5055390;28;20131;-90
2023/08/17 09:15:31;;;;;;;26.20;13.13;;;;;;;23.84;57.97;93661.47;5059763;28;20036;-91
2023/08/17 09:17:56;;;;;;;25.95;11.65;;;;;;;23.84;57.21;93661.47;5046155;28;20043;-91
2023/08/17 09:20:41;;;;;;;37.15;16.65;;;;;;;23.82;58.40;93658.50;5035495;28;20048;-89
2023/08/17 09:23:12;;;;;;;20.23;10.68;;;;;;;23.77;57.43;93667.69;5077086;28;20055;-91
2023/08/17 09:25:38;;;;;;;13.20;9.57;;;;;;;23.71;57.19;93660.81;5047796;28;20638;-90
2023/08/17 09:28:09;;;;;;;24.30;12.18;;;;;;;23.71;58.24;93649.78;5034628;28;20052;-89
2023/08/17 09:30:54;;;;;;;22.50;11.00;;;;;;;23.75;57.52;93648.16;5037236;28;20040;-89
2023/08/17 09:33:22;;;;;;;16.67;10.77;;;;;;;23.72;58.27;93654.00;5045262;28;20029;-90
2023/08/17 09:35:49;;;;;;;12.00;10.30;;;;;;;23.73;58.22;93653.47;5037530;28;20033;-90
2023/08/17 09:38:14;;;;;;;28.20;11.07;;;;;;;23.75;58.31;93648.16;5058571;28;20157;-91
2023/08/17 09:40:40;;;;;;;14.13;10.57;;;;;;;23.75;57.14;93639.13;5057510;28;20067;-90
2023/08/17 09:43:05;;;;;;;16.58;10.40;;;;;;;23.77;57.50;93644.84;5050108;28;20036;-91
2023/08/17 09:45:31;;;;;;;44.10;17.35;;;;;;;23.75;57.45;93647.41;5046336;28;20518;-91
2023/08/17 09:47:59;;;;;;;34.60;13.20;;;;;;;23.86;55.38;93650.63;5065954;28;20554;-89
2023/08/17 09:50:25;;;;;;;47.97;22.65;;;;;;;23.78;55.56;93638.78;5063163;28;20589;-90
2023/08/17 09:52:53;;;;;;;22.92;14.95;;;;;;;23.80;56.12;93641.03;5052658;28;20512;-92
2023/08/17 09:55:19;;;;;;;39.28;18.58;;;;;;;23.82;56.15;93641.19;5051067;28;20510;-90
2023/08/17 09:57:44;;;;;;;23.17;15.18;;;;;;;23.79;55.40;93634.03;5069579;28;20040;-91
2023/08/17 10:00:10;;;;;;;56.30;24.65;;;;;;;23.82;56.44;93632.91;5058847;28;20174;-91
2023/08/17 10:02:37;;;;;;;25.42;16.05;;;;;;;23.86;56.08;93634.06;5037739;28;20068;-90
2023/08/17 10:05:03;;;;;;;33.47;16.73;;;;;;;23.94;56.06;93634.13;5067705;28;20521;-90
2023/08/17 10:07:30;;;;;;;28.42;19.00;;;;;;;23.95;55.57;93632.84;5051920;28;20161;-90
2023/08/17 10:10:02;;;;;;;22.23;14.43;;;;;;;24.02;54.62;93631.41;5045606;28;20099;-88
2023/08/17 10:12:28;;;;;;;31.58;21.13;;;;;;;24.00;56.64;93640.25;5075290;28;20774;-91
2023/08/17 10:15:00;;;;;;;21.88;15.95;;;;;;;24.04;55.22;93635.09;5030348;28;20049;-91
2023/08/17 10:17:26;;;;;;;29.92;16.80;;;;;;;24.10;55.55;93629.44;5079345;28;20044;-90
2023/08/17 10:19:58;;;;;;;23.15;14.63;;;;;;;24.15;54.64;93634.06;5079827;28;20071;-91
2023/08/17 10:22:29;;;;;;;42.58;24.73;;;;;;;24.08;56.08;93638.25;5062870;28;20439;-90
2023/08/17 10:24:55;;;;;;;20.45;13.57;;;;;;;24.14;54.31;93638.09;5041163;28;20045;-91
2023/08/17 10:27:21;;;;;;;19.02;12.18;;;;;;;24.09;54.73;93628.69;5077820;28;20097;-89
2023/08/17 10:29:46;;;;;;;14.23;10.73;;;;;;;24.13;55.36;93633.88;5090492;28;20459;-90
2023/08/17 10:32:12;;;;;;;21.10;13.98;;;;;;;24.18;55.27;93621.94;5055780;28;20040;-90
2023/08/17 10:34:38;;;;;;;25.77;11.32;;;;;;;24.18;55.54;93619.91;5052548;28;20037;-91
2023/08/17 10:37:04;;;;;;;15.18;10.20;;;;;;;24.32;54.49;93630.88;5069777;28;20047;-92
2023/08/17 10:39:29;;;;;;;15.70;12.45;;;;;;;24.34;55.03;93631.06;5073313;28;20111;-91
2023/08/17 10:41:55;;;;;;;12.30;9.73;;;;;;;24.25;54.57;93635.78;5073172;28;20036;-90
2023/08/17 10:44:43;;;;;;;24.30;12.02;;;;;;;24.23;54.67;93627.31;5058303;28;20037;-90
2023/08/17 10:47:18;;;;;;;15.57;10.45;;;;;;;24.22;54.72;93633.38;5064506;28;20036;-91
2023/08/17 10:49:44;;;;;;;34.47;19.10;;;;;;;24.23;55.53;93634.84;5037067;28;20041;-90
2023/08/17 10:52:09;;;;;;;38.65;17.40;;;;;;;24.12;55.59;93635.16;5012499;28;20041;-91
2023/08/17 10:54:40;;;;;;;19.70;13.60;;;;;;;24.10;56.18;93623.91;5030646;28;20084;-91
2023/08/17 10:57:39;;;;;;;23.80;14.90;;;;;;;24.08;55.95;93618.19;5051767;28;20083;-90
2023/08/17 11:00:26;;;;;;;23.30;12.52;;;;;;;24.14;54.66;93629.81;5050830;28;20044;-92
2023/08/17 11:02:55;;;;;;;44.75;23.50;;;;;;;24.10;55.90;93629.44;5035252;28;20059;-92
2023/08/17 11:05:46;;;;;;;34.13;18.70;;;;;;;24.09;56.06;93625.91;5034108;28;20135;-92
2023/08/17 11:08:42;;;;;;;28.15;18.33;;;;;;;24.09;56.13;93622.41;5046206;28;20581;-91
2023/08/17 11:11:12;;;;;;;31.38;18.58;;;;;;;24.08;56.44;93615.41;5039926;28;20047;-91
2023/08/17 11:13:38;;;;;;;28.90;17.38;;;;;;;24.09;56.53;93620.41;5016100;28;20053;-91
2023/08/17 11:16:04;;;;;;;34.22;20.40;;;;;;;24.11;56.52;93626.13;5035147;28;20045;-92
2023/08/17 11:18:30;;;;;;;37.88;18.63;;;;;;;24.12;56.45;93624.09;5051129;28;20071;-91
2023/08/17 11:20:56;;;;;;;47.17;22.20;;;;;;;24.10;56.33;93623.91;5058630;28;20484;-91
2023/08/17 11:23:22;;;;;;;59.95;23.80;;;;;;;24.10;56.70;93619.13;5074090;28;20081;-93